sensor_id;sensor_type;location;lat;lon;timestamp;P1;durP1;ratioP1;P2;durP2;ratioP2
7883;SDS011;3987;51.458;7.238;2023-05-20T00:13:51;4.80;;;3.50;;
7883;SDS011;3987;51.458;7.238;2023-05-20T00:28:52;3.20;;;3.10;;
7883;SDS011;3987;51.458;7.238;2023-05-20T00:43:53;3.10;;;3.00;;
7883;SDS011;3987;51.458;7.238;2023-05-20T00:58:54;3.07;;;2.97;;
7883;SDS011;3987;51.458;7.238;2023-05-20T01:13:57;3.17;;;3.00;;
7883;SDS011;3987;51.458;7.238;2023-05-20T01:29:00;3.33;;;3.17;;
7883;SDS011;3987;51.458;7.238;2023-05-20T01:44:03;3.33;;;3.23;;
7883;SDS011;3987;51.458;7.238;2023-05-20T01:59:04;3.40;;;3.30;;
7883;SDS011;3987;51.458;7.238;2023-05-20T02:14:04;7.43;;;6.33;;
7883;SDS011;3987;51.458;7.238;2023-05-20T02:29:05;3.37;;;3.27;;
7883;SDS011;3987;51.458;7.238;2023-05-20T02:44:05;3.47;;;3.27;;
7883;SDS011;3987;51.458;7.238;2023-05-20T02:59:06;3.27;;;3.17;;
7883;SDS011;3987;51.458;7.238;2023-05-20T03:14:07;3.37;;;3.13;;
7883;SDS011;3987;51.458;7.238;2023-05-20T03:29:08;2.93;;;2.83;;
7883;SDS011;3987;51.458;7.238;2023-05-20T03:44:10;3.10;;;3.00;;
7883;SDS011;3987;51.458;7.238;2023-05-20T03:59:11;3.40;;;3.30;;
7883;SDS011;3987;51.458;7.238;2023-05-20T04:14:12;3.17;;;3.17;;
7883;SDS011;3987;51.458;7.238;2023-05-20T04:29:12;2.93;;;2.93;;
7883;SDS011;3987;51.458;7.238;2023-05-20T04:44:15;3.33;;;3.13;;
7883;SDS011;3987;51.458;7.238;2023-05-20T04:59:15;3.30;;;3.10;;
7883;SDS011;3987;51.458;7.238;2023-05-20T05:14:16;3.20;;;3.00;;
7883;SDS011;3987;51.458;7.238;2023-05-20T05:29:17;2.87;;;2.77;;
7883;SDS011;3987;51.458;7.238;2023-05-20T05:44:17;2.53;;;2.50;;
7883;SDS011;3987;51.458;7.238;2023-05-20T05:59:18;2.73;;;2.73;;
7883;SDS011;3987;51.458;7.238;2023-05-20T06:14:19;3.10;;;3.00;;
7883;SDS011;3987;51.458;7.238;2023-05-20T06:29:20;5.00;;;3.53;;
7883;SDS011;3987;51.458;7.238;2023-05-20T06:44:20;4.40;;;3.77;;
7883;SDS011;3987;51.458;7.238;2023-05-20T06:59:32;4.83;;;4.43;;
7883;SDS011;3987;51.458;7.238;2023-05-20T07:14:33;5.33;;;5.13;;
7883;SDS011;3987;51.458;7.238;2023-05-20T07:29:35;5.97;;;5.67;;
7883;SDS011;3987;51.458;7.238;2023-05-20T07:44:37;5.40;;;5.30;;
7883;SDS011;3987;51.458;7.238;2023-05-20T07:59:38;4.90;;;4.80;;
7883;SDS011;3987;51.458;7.238;2023-05-20T08:14:39;5.87;;;5.67;;
7883;SDS011;3987;51.458;7.238;2023-05-20T08:29:39;5.60;;;5.40;;
7883;SDS011;3987;51.458;7.238;2023-05-20T08:44:40;6.28;;;6.07;;
7883;SDS011;3987;51.458;7.238;2023-05-20T08:59:42;6.83;;;6.47;;
7883;SDS011;3987;51.458;7.238;2023-05-20T09:14:43;6.60;;;6.20;;
7883;SDS011;3987;51.458;7.238;2023-05-20T09:29:46;14.83;;;7.00;;
7883;SDS011;3987;51.458;7.238;2023-05-20T09:44:48;7.17;;;6.97;;
7883;SDS011;3987;51.458;7.238;2023-05-20T09:59:49;7.93;;;7.40;;
7883;SDS011;3987;51.458;7.238;2023-05-20T10:30:20;8.53;;;7.73;;
7883;SDS011;3987;51.458;7.238;2023-05-20T10:45:28;6.70;;;6.33;;
7883;SDS011;3987;51.458;7.238;2023-05-20T11:00:34;6.77;;;6.43;;
7883;SDS011;3987;51.458;7.238;2023-05-20T11:15:38;6.13;;;6.00;;
7883;SDS011;3987;51.458;7.238;2023-05-20T11:30:39;6.80;;;6.30;;
7883;SDS011;3987;51.458;7.238;2023-05-20T11:45:42;6.70;;;6.37;;
7883;SDS011;3987;51.458;7.238;2023-05-20T12:00:43;6.10;;;5.80;;
7883;SDS011;3987;51.458;7.238;2023-05-20T12:15:44;4.23;;;4.10;;
7883;SDS011;3987;51.458;7.238;2023-05-20T12:30:44;5.20;;;5.00;;
7883;SDS011;3987;51.458;7.238;2023-05-20T12:45:45;4.87;;;4.67;;
7883;SDS011;3987;51.458;7.238;2023-05-20T13:00:45;4.87;;;4.57;;
7883;SDS011;3987;51.458;7.238;2023-05-20T13:15:49;4.87;;;4.77;;
7883;SDS011;3987;51.458;7.238;2023-05-20T13:30:49;4.00;;;3.80;;
7883;SDS011;3987;51.458;7.238;2023-05-20T13:45:50;3.80;;;3.70;;
7883;SDS011;3987;51.458;7.238;2023-05-20T14:00:50;4.13;;;3.80;;
7883;SDS011;3987;51.458;7.238;2023-05-20T14:15:51;3.77;;;3.67;;
7883;SDS011;3987;51.458;7.238;2023-05-20T14:30:54;3.90;;;3.70;;
7883;SDS011;3987;51.458;7.238;2023-05-20T14:45:54;4.10;;;4.00;;
7883;SDS011;3987;51.458;7.238;2023-05-20T15:00:55;4.73;;;4.63;;
7883;SDS011;3987;51.458;7.238;2023-05-20T15:15:55;4.73;;;4.63;;
7883;SDS011;3987;51.458;7.238;2023-05-20T15:30:56;4.87;;;4.77;;
7883;SDS011;3987;51.458;7.238;2023-05-20T15:45:56;6.00;;;5.70;;
7883;SDS011;3987;51.458;7.238;2023-05-20T16:00:57;5.90;;;5.80;;
7883;SDS011;3987;51.458;7.238;2023-05-20T16:15:57;5.93;;;5.63;;
7883;SDS011;3987;51.458;7.238;2023-05-20T16:30:58;6.70;;;6.50;;
7883;SDS011;3987;51.458;7.238;2023-05-20T16:45:58;5.47;;;4.90;;
7883;SDS011;3987;51.458;7.238;2023-05-20T17:00:59;4.93;;;4.83;;
7883;SDS011;3987;51.458;7.238;2023-05-20T17:16:00;4.67;;;4.57;;
7883;SDS011;3987;51.458;7.238;2023-05-20T17:31:01;5.47;;;5.17;;
7883;SDS011;3987;51.458;7.238;2023-05-20T17:46:01;6.17;;;5.93;;
7883;SDS011;3987;51.458;7.238;2023-05-20T18:01:02;5.90;;;5.70;;
7883;SDS011;3987;51.458;7.238;2023-05-20T18:16:02;6.90;;;6.50;;
7883;SDS011;3987;51.458;7.238;2023-05-20T18:31:03;7.47;;;7.07;;
7883;SDS011;3987;51.458;7.238;2023-05-20T18:46:03;8.30;;;7.77;;
7883;SDS011;3987;51.458;7.238;2023-05-20T19:01:04;8.43;;;8.03;;
7883;SDS011;3987;51.458;7.238;2023-05-20T19:16:04;9.20;;;8.47;;
7883;SDS011;3987;51.458;7.238;2023-05-20T19:31:05;8.93;;;8.30;;
7883;SDS011;3987;51.458;7.238;2023-05-20T19:46:05;10.07;;;9.40;;
7883;SDS011;3987;51.458;7.238;2023-05-20T20:01:06;10.50;;;9.80;;
7883;SDS011;3987;51.458;7.238;2023-05-20T20:16:06;10.77;;;9.97;;
7883;SDS011;3987;51.458;7.238;2023-05-20T20:31:07;12.48;;;11.48;;
7883;SDS011;3987;51.458;7.238;2023-05-20T20:46:07;12.87;;;11.87;;
7883;SDS011;3987;51.458;7.238;2023-05-20T21:01:08;13.37;;;12.37;;
7883;SDS011;3987;51.458;7.238;2023-05-20T21:16:09;13.10;;;12.10;;
7883;SDS011;3987;51.458;7.238;2023-05-20T21:31:09;13.63;;;12.50;;
7883;SDS011;3987;51.458;7.238;2023-05-20T21:46:10;12.83;;;11.83;;
7883;SDS011;3987;51.458;7.238;2023-05-20T22:01:10;12.70;;;11.73;;
7883;SDS011;3987;51.458;7.238;2023-05-20T22:16:11;13.23;;;12.00;;
7883;SDS011;3987;51.458;7.238;2023-05-20T22:31:11;13.03;;;12.03;;
7883;SDS011;3987;51.458;7.238;2023-05-20T22:46:12;13.13;;;11.97;;
7883;SDS011;3987;51.458;7.238;2023-05-20T23:01:12;13.83;;;12.43;;
7883;SDS011;3987;51.458;7.238;2023-05-20T23:16:15;13.33;;;12.33;;
7883;SDS011;3987;51.458;7.238;2023-05-20T23:31:15;14.00;;;13.03;;
7883;SDS011;3987;51.458;7.238;2023-05-20T23:46:17;13.97;;;12.80;;
